Flight Track Log - Related Links

Times and Time Zones

All times are in EDT time to prevent confusion due to time zone crossing. See the OPT452 flight status page for this flight to view local times or setup timezone preferences in your user account.

Time Position Orientation Groundspeed Altitude Reporting Facility
EDT Latitude Longitude Course Direction KTS MPH feet Rate Location/Type
Sat 03:26:56 PM 32.9286 -79.9919 31° Northeast 201 231 3,100  Level Jacksonville Center
Sat 03:27:56 PM 32.9500 -79.9219 70° East 217 250 5,400 2,150 Climbing Jacksonville Center
Sat 03:28:56 PM 32.9769 -79.8319 70° East 248 285 7,400 2,250 Climbing Jacksonville Center
Sat 03:29:56 PM 33.0061 -79.7394 69° East 280 322 9,900 2,500 Climbing Jacksonville Center
Sat 03:30:56 PM 33.0497 -79.6536 59° Northeast 292 336 12,400 1,950 Climbing Jacksonville Center
Sat 03:31:56 PM 33.1086 -79.5844 45° Northeast 298 343 13,800 1,350 Climbing Jacksonville Center
Sat 03:32:00 PM 33.2861 -79.3041 31° Northeast  Level FlightAware Approximate
Sat 03:32:56 PM 33.1881 -79.5169 35° Northeast 313 360 15,100  Level Jacksonville Center
Sat 03:33:56 PM 33.2697 -79.4469 36° Northeast 336 387 16,500 1,350 Climbing Jacksonville Center
Sat 03:34:56 PM 33.3553 -79.3714 36° Northeast 362 417 17,800 1,200 Climbing Jacksonville Center
Sat 03:35:56 PM 33.4408 -79.2933 37° Northeast 374 430 18,900 1,200 Climbing Jacksonville Center
Sat 03:36:56 PM 33.5325 -79.2150 35° Northeast 388 447 20,200 1,300 Climbing Jacksonville Center
Sat 03:37:56 PM 33.6261 -79.1336 36° Northeast 394 453 21,500 1,250 Climbing Jacksonville Center
Sat 03:38:56 PM 33.7053 -79.0656 36° Northeast 394 453 22,700 1,250 Climbing Jacksonville Center
Sat 03:39:56 PM 33.7989 -78.9839 36° Northeast 400 460 24,000 1,300 Climbing Jacksonville Center
Sat 03:40:56 PM 33.8944 -78.9019 35° Northeast 406 467 25,300 1,350 Climbing Jacksonville Center
Sat 03:41:56 PM 33.9897 -78.8153 37° Northeast 420 483 26,700 1,350 Climbing Jacksonville Center
Sat 03:42:56 PM 34.0869 -78.7278 37° Northeast 426 490 28,000 1,348 Climbing Jacksonville Center
Sat 03:45:03 PM 34.3089 -78.5336 36° Northeast 444 511 30,900 963 Climbing Washington Center
Sat 03:46:03 PM 34.4133 -78.4392 37° Northeast 444 511 31,000 50 Climbing Washington Center
Sat 03:47:03 PM 34.5242 -78.3397 36° Northeast 469 540 31,000 250 Level Washington Center
Sat 03:48:03 PM 34.6369 -78.2375 37° Northeast 488 562 31,500 600 Climbing Washington Center
Sat 03:49:03 PM 34.7419 -78.1169 43° Northeast 499 574 32,200 750 Climbing Washington Center
Sat 03:50:03 PM 34.8364 -77.9883 48° Northeast 499 574 33,000 750 Climbing Washington Center
Sat 03:51:03 PM 34.9306 -77.8669 47° Northeast 499 574 33,700 700 Climbing Washington Center
Sat 03:52:03 PM 35.0308 -77.7456 45° Northeast 499 574 34,400 700 Climbing Washington Center
Sat 03:53:03 PM 35.1289 -77.6261 45° Northeast 494 568 35,100 750 Climbing Washington Center
Sat 03:54:03 PM 35.2247 -77.5067 45° Northeast 494 568 35,900 750 Climbing Washington Center
Sat 03:55:03 PM 35.3183 -77.3867 46° Northeast 494 568 36,600 750 Climbing Washington Center
Sat 03:56:03 PM 35.4219 -77.3022 34° Northeast 494 568 37,400 750 Climbing Washington Center
Sat 03:57:03 PM 35.5400 -77.2156 31° Northeast 489 563 38,100 700 Climbing Washington Center
Sat 03:58:03 PM 35.6558 -77.1308 31° Northeast 489 563 38,800 450 Climbing Washington Center
Sat 03:59:03 PM 35.7694 -77.0461 31° Northeast 477 549 39,000 100 Climbing Washington Center
Sat 04:00:03 PM 35.8894 -76.9558 31° Northeast 483 556 39,000  Level Washington Center
Sat 04:01:03 PM 36.0117 -76.8656 31° Northeast 495 570 39,000  Level Washington Center
Sat 04:02:03 PM 36.1356 -76.7725 31° Northeast 506 582 39,000  Level Washington Center
Sat 04:03:03 PM 36.2658 -76.6764 31° Northeast 524 603 39,000  Level Washington Center
Sat 04:04:03 PM 36.4044 -76.5753 30° Northeast 524 603 39,000  Level Washington Center
Sat 04:05:03 PM 36.5325 -76.4761 32° Northeast 524 603 39,000 250 Level Washington Center
Sat 04:06:03 PM 36.6561 -76.3842 31° Northeast 529 609 39,500 750 Climbing Washington Center
Sat 04:07:03 PM 36.7631 -76.2972 33° Northeast 515 593 40,500 750 Climbing Washington Center
Sat 04:08:03 PM 36.8742 -76.2125 31° Northeast 489 563 41,000 250 Climbing Washington Center
Sat 04:09:03 PM 37.0081 -76.1458 22° Northeast 458 527 41,000  Level Washington Center
Sat 04:10:03 PM 37.1231 -76.0817 24° Northeast 458 527 41,000  Level Washington Center
Sat 04:11:03 PM 37.2442 -76.0172 23° Northeast 458 527 41,000  Level Washington Center
Sat 04:12:03 PM 37.3633 -75.9550 23° Northeast 458 527 41,000  Level Washington Center
Sat 04:13:03 PM 37.4825 -75.8875 24° Northeast 458 527 41,000  Level Washington Center
Sat 04:14:03 PM 37.5994 -75.8147 26° Northeast 458 527 41,000  Level Washington Center
Sat 04:15:03 PM 37.7183 -75.7258 31° Northeast 473 544 41,000  Level Washington Center
Sat 04:16:03 PM 37.8311 -75.6417 31° Northeast 478 550 41,000  Level Washington Center
Sat 04:17:03 PM 37.9478 -75.5522 31° Northeast 483 556 41,000  Level Washington Center
Sat 04:18:03 PM 38.0667 -75.4572 32° Northeast 489 563 41,000  Level Washington Center
Sat 04:19:03 PM 38.1769 -75.3433 39° Northeast 494 568 41,000  Level Washington Center
Sat 04:20:03 PM 38.2872 -75.2319 38° Northeast 504 580 41,000  Level Washington Center
Sat 04:21:03 PM 38.3828 -75.1203 42° Northeast 510 587 41,000  Level Washington Center
Sat 04:22:03 PM 38.4928 -75.0056 39° Northeast 510 587 41,000  Level Washington Center
Sat 04:23:03 PM 38.6047 -74.8903 39° Northeast 515 593 41,000  Level Washington Center
Sat 04:24:03 PM 38.7167 -74.7747 39° Northeast 515 593 41,000  Level Washington Center
Sat 04:25:03 PM 38.8261 -74.6511 41° Northeast 521 600 41,000  Level Washington Center
Sat 04:26:03 PM 38.9378 -74.5347 39° Northeast 521 600 41,000  Level Washington Center
Sat 04:27:03 PM 39.0492 -74.4156 40° Northeast 521 600 41,000  Level Washington Center
Sat 04:28:03 PM 39.1583 -74.2961 40° Northeast 521 600 41,000  Level Washington Center
Sat 04:29:03 PM 39.2694 -74.1733 41° Northeast 521 600 41,000  Level Washington Center
Sat 04:30:03 PM 39.3786 -74.0531 40° Northeast 521 600 41,000  Level Washington Center
Sat 04:32:12 PM 39.6147 -73.7919 40° Northeast 533 613 41,000  Level Boston Center
Sat 04:33:12 PM 39.7222 -73.6700 41° Northeast 523 602 41,000  Level Boston Center
Sat 04:34:12 PM 39.8339 -73.5478 40° Northeast 523 602 41,000 -50 Level Boston Center
Sat 04:35:12 PM 39.9581 -73.4172 39° Northeast 517 595 40,900 -300 Descending Boston Center
Sat 04:36:12 PM 40.0675 -73.2914 41° Northeast 517 595 40,400 -1,050 Descending Boston Center
Sat 04:37:12 PM 40.1850 -73.1625 40° Northeast 523 602 38,800 -1,400 Descending Boston Center
Sat 04:38:12 PM 40.2711 -73.0656 41° Northeast 546 628 37,600 -2,050 Descending Boston Center
Sat 04:39:12 PM 40.4050 -72.9089 42° Northeast 546 628 34,700 -2,800 Descending Boston Center
Sat 04:40:12 PM 40.5139 -72.7786 42° Northeast 539 620 32,000 -2,650 Descending Boston Center
Sat 04:41:12 PM 40.6289 -72.6506 40° Northeast 539 620 29,400 -2,800 Descending Boston Center
Sat 04:42:12 PM 40.7519 -72.5086 41° Northeast 534 615 26,400 -2,800 Descending Boston Center
Sat 04:43:12 PM 40.8644 -72.3797 41° Northeast 534 615 23,800 -2,650 Descending Boston Center
Sat 04:44:12 PM 40.9831 -72.2725 34° Northeast 528 608 21,100 -2,550 Descending Boston Center
Sat 04:45:12 PM 41.0914 -72.2169 21° North 488 562 18,700 -2,000 Descending Boston Center
Sat 04:46:12 PM 41.2017 -72.1697 18° North 438 504 17,100 -850 Descending Boston Center
Sat 04:47:12 PM 41.3164 -72.1472 North 416 479 17,000 -250 Descending Boston Center
Sat 04:48:12 PM 41.4414 -72.1300 North 416 479 16,600 -1,000 Descending Boston Center
Sat 04:49:12 PM 41.5456 -72.1128 North 411 473 15,000 -800 Descending Boston Center
Sat 04:50:12 PM 41.6600 -72.0983 North 383 441 15,000 -197 Level Boston Center
Sat 04:51:14 PM 41.7664 -72.0867 North 379 436 14,600 -1,000 Descending Boston Center
Sat 04:52:12 PM 41.8725 -72.0667 North 383 441 13,000 -1,525 Descending Boston Center
Sat 04:53:12 PM 41.9642 -72.0519 North 376 433 11,600 -1,481 Descending Boston Center
Sat 04:53:33 PM 42.0078 -72.0489 North 344 396 11,000 -1,600 Descending Boston Center
Sat 04:54:12 PM 42.0619 -72.0403 North 332 382 10,000 -1,475 Descending Boston Center
Sat 04:54:34 PM 42.0911 -72.0344 North 302 348 9,500 -1,820 Descending Boston Center
Sat 04:55:41 PM 42.1722 -71.9583 35° Northeast 301 346 7,300 -1,984 Descending Boston Center
Sat 04:56:41 PM 42.2322 -71.8933 39° Northeast 274 315 5,300 -1,140 Descending Boston Center
Sat 04:57:42 PM 42.2842 -71.8339 40° Northeast 246 283 5,000 -99 Descending Boston Center
Sat 04:59:42 PM 42.3833 -71.6833 48° Northeast 272 313 5,000  Level KA90
Sat 05:00:42 PM 42.4167 -71.6000 62° Northeast 261 300 5,000 -150 Level KA90
Sat 05:01:42 PM 42.4667 -71.5167 51° Northeast 280 322 4,700 -942 Descending KA90
Sat 05:02:43 PM 42.5000 -71.4167 66° East 265 305 3,100 -810 Descending KA90
Sat 05:03:48 PM 42.5167 -71.3333 75° East 234 269 3,000 -687 Descending KA90
Sat 05:04:54 PM 42.5000 -71.2333 103° East 231 266 1,600 -900 Descending KA90
Sat 05:05:48 PM 42.4833 -71.2000 124° Southeast 166 191 1,200 -550 Descending KA90
Sat 05:06:54 PM 42.4667 -71.2500 246° West 122 140 500 -636 Descending KA90
Sat 05:08:00 PM 42.4667 -71.2833 228° Southwest  Level FlightAware Approximate
Sat 05:15:00 PM 42.4699 -71.2890 228° Southwest  Level Estimated

Login

Don't have an account? Register now (free) for customized features, flight alerts, and more!